createdAt,value
2022-10-03T00:02:24.309Z,101151.41
2022-10-03T00:04:58.826Z,101155.03
2022-10-03T00:07:46.356Z,101158.81
2022-10-03T00:10:12.581Z,101156.19
2022-10-03T00:12:42.706Z,101156.84
2022-10-03T00:15:14.100Z,101155.25
2022-10-03T00:17:52.848Z,101161.72
2022-10-03T00:20:19.325Z,101172.56
2022-10-03T00:23:05.985Z,101165.81
2022-10-03T00:25:51.029Z,101169.94
2022-10-03T00:28:37.506Z,101174.06
2022-10-03T00:31:17.905Z,101181.78
2022-10-03T00:34:07.619Z,101177.25
2022-10-03T00:36:42.641Z,101181.72
2022-10-03T00:39:31.572Z,101187.75
2022-10-03T00:42:16.689Z,101184.34
2022-10-03T00:45:02.851Z,101180.66
2022-10-03T00:47:41.117Z,101189.00
2022-10-03T00:50:15.648Z,101193.59
2022-10-03T00:53:00.243Z,101187.78
2022-10-03T00:55:40.993Z,101180.19
2022-10-03T00:58:16.522Z,101189.38
2022-10-03T01:00:46.418Z,101184.09
2022-10-03T01:03:19.363Z,101183.88
2022-10-03T01:06:04.456Z,101186.81
2022-10-03T01:08:30.906Z,101186.09
2022-10-03T01:11:04.130Z,101194.84
2022-10-03T01:13:48.993Z,101206.25
2022-10-03T01:16:18.335Z,101199.13
2022-10-03T01:18:44.597Z,101200.50
2022-10-03T01:21:19.596Z,101211.72
2022-10-03T01:23:57.673Z,101210.41
2022-10-03T01:26:53.317Z,101218.88
2022-10-03T01:29:44.763Z,101220.72
2022-10-03T01:32:16.833Z,101224.63
2022-10-03T01:35:00.132Z,101218.63
2022-10-03T01:37:32.997Z,101225.53
2022-10-03T01:40:18.177Z,101236.19
2022-10-03T01:42:54.968Z,101229.72
2022-10-03T01:45:37.501Z,101229.72
2022-10-03T01:48:12.715Z,101229.00
2022-10-03T01:50:50.996Z,101224.94
2022-10-03T01:53:33.182Z,101233.66
2022-10-03T01:56:04.486Z,101234.00
2022-10-03T01:58:34.475Z,101237.75
2022-10-03T02:01:21.668Z,101228.28
2022-10-03T02:04:04.323Z,101232.75
2022-10-03T02:06:33.400Z,101237.72
2022-10-03T02:09:27.441Z,101239.66
2022-10-03T02:12:13.666Z,101244.34
2022-10-03T02:14:51.702Z,101239.66
2022-10-03T02:17:26.010Z,101244.53
2022-10-03T02:20:09.297Z,101250.63
2022-10-03T02:22:42.558Z,101246.13
2022-10-03T02:25:14.584Z,101242.84
2022-10-03T02:27:52.295Z,101248.47
2022-10-03T02:30:18.818Z,101253.84
2022-10-03T02:33:16.620Z,101252.84
2022-10-03T02:35:45.637Z,101253.84
2022-10-03T02:38:21.001Z,101256.28
2022-10-03T02:41:07.013Z,101264.66
2022-10-03T02:43:51.919Z,101269.94
2022-10-03T02:46:36.854Z,101272.88
2022-10-03T02:49:35.168Z,101276.97
2022-10-03T02:52:05.465Z,101274.16
2022-10-03T02:54:48.136Z,101270.84
2022-10-03T02:57:45.267Z,101269.25
2022-10-03T03:00:33.748Z,101272.88
2022-10-03T03:03:03.041Z,101269.66
2022-10-03T03:05:44.911Z,101277.69
2022-10-03T03:08:33.621Z,101275.31
2022-10-03T03:11:18.624Z,101282.28
2022-10-03T03:13:54.472Z,101284.09
2022-10-03T03:16:39.460Z,101289.78
2022-10-03T03:19:24.525Z,101284.53
2022-10-03T03:22:02.507Z,101295.06
2022-10-03T03:24:41.670Z,101300.56
2022-10-03T03:27:28.259Z,101289.56
2022-10-03T03:30:06.714Z,101308.69
2022-10-03T03:32:37.336Z,101310.25
2022-10-03T03:35:12.959Z,101310.47
2022-10-03T03:37:48.591Z,101302.66
2022-10-03T03:40:29.612Z,101309.19
2022-10-03T03:42:55.841Z,101304.13
2022-10-03T03:45:33.633Z,101303.34
2022-10-03T03:48:14.492Z,101310.56
2022-10-03T03:50:55.811Z,101316.22
2022-10-03T03:53:29.960Z,101305.34
2022-10-03T03:56:07.203Z,101313.13
2022-10-03T03:58:41.828Z,101309.16
2022-10-03T04:01:31.572Z,101319.69
2022-10-03T04:04:07.094Z,101323.81
2022-10-03T04:06:39.215Z,101325.88
2022-10-03T04:09:14.514Z,101323.94
2022-10-03T04:11:59.703Z,101336.63
2022-10-03T04:14:44.190Z,101332.63
2022-10-03T04:17:35.182Z,101339.81
2022-10-03T04:20:04.361Z,101337.66
2022-10-03T04:22:36.803Z,101341.44
2022-10-03T04:25:06.032Z,101345.78
2022-10-03T04:27:55.645Z,101342.59
2022-10-03T04:30:30.203Z,101344.66
2022-10-03T04:32:57.162Z,101335.13
2022-10-03T04:35:29.546Z,101337.41
2022-10-03T04:38:14.730Z,101341.31
2022-10-03T04:41:02.997Z,101349.56
2022-10-03T04:43:45.915Z,101348.19
2022-10-03T04:46:27.252Z,101361.22
2022-10-03T04:49:04.967Z,101358.03
2022-10-03T04:51:43.119Z,101355.41
2022-10-03T04:54:09.717Z,101354.81
2022-10-03T04:56:51.145Z,101351.03
2022-10-03T04:59:35.180Z,101343.94
2022-10-03T05:02:03.176Z,101353.56
2022-10-03T05:04:29.809Z,101355.63
2022-10-03T05:07:06.166Z,101359.88
2022-10-03T05:09:51.292Z,101361.00
2022-10-03T05:12:36.556Z,101368.66
2022-10-03T05:15:14.946Z,101368.34
2022-10-03T05:17:46.836Z,101368.81
2022-10-03T05:20:20.079Z,101362.84
2022-10-03T05:23:02.384Z,101365.47
2022-10-03T05:25:31.482Z,101364.22
2022-10-03T05:28:03.513Z,101365.91
2022-10-03T05:30:35.325Z,101376.47
2022-10-03T05:33:19.484Z,101371.41
2022-10-03T05:36:18.218Z,101373.34
2022-10-03T05:39:03.105Z,101383.31
2022-10-03T05:41:32.200Z,101389.88
2022-10-03T05:44:01.254Z,101394.28
2022-10-03T05:46:33.662Z,101395.00
2022-10-03T05:49:23.672Z,101398.47
2022-10-03T05:52:08.773Z,101405.66
2022-10-03T05:55:01.612Z,101400.53
2022-10-03T05:57:40.449Z,101407.03
2022-10-03T06:00:18.947Z,101402.22
2022-10-03T06:02:54.431Z,101416.44
2022-10-03T06:05:39.316Z,101413.41
2022-10-03T06:08:26.513Z,101418.25
2022-10-03T06:11:01.461Z,101419.81
2022-10-03T06:13:30.469Z,101421.91
2022-10-03T06:16:02.795Z,101428.97
2022-10-03T06:18:43.023Z,101427.16
2022-10-03T06:21:15.095Z,101422.09
2022-10-03T06:23:58.338Z,101421.75
2022-10-03T06:26:42.898Z,101432.09
2022-10-03T06:29:47.879Z,101430.56
2022-10-03T06:32:33.414Z,101445.56
2022-10-03T06:35:25.271Z,101443.28
2022-10-03T06:38:04.136Z,101454.63
2022-10-03T06:40:48.853Z,101452.91
2022-10-03T06:43:34.060Z,101461.28
2022-10-03T06:46:24.494Z,101451.66
2022-10-03T06:49:09.571Z,101457.81
2022-10-03T06:51:52.328Z,101463.72
2022-10-03T06:54:24.639Z,101455.19
2022-10-03T06:57:03.476Z,101467.22
2022-10-03T06:59:41.738Z,101470.31
2022-10-03T07:02:31.033Z,101474.44
2022-10-03T07:05:09.927Z,101470.44
2022-10-03T07:07:56.173Z,101481.81
2022-10-03T07:10:31.560Z,101486.03
2022-10-03T07:13:16.555Z,101479.03
2022-10-03T07:16:26.045Z,101483.31
2022-10-03T07:18:53.281Z,101483.59
2022-10-03T07:21:25.515Z,101489.34
2022-10-03T07:24:14.954Z,101486.38
2022-10-03T07:26:57.332Z,101499.09
2022-10-03T07:29:37.080Z,101497.94
2022-10-03T07:32:06.338Z,101508.03
2022-10-03T07:34:45.614Z,101509.63
2022-10-03T07:37:38.462Z,101512.38
2022-10-03T07:40:15.875Z,101520.16
2022-10-03T07:43:01.148Z,101531.00
2022-10-03T07:45:37.487Z,101528.38
2022-10-03T07:48:18.798Z,101535.81
2022-10-03T07:50:51.238Z,101531.56
2022-10-03T07:53:44.906Z,101535.59
2022-10-03T07:56:26.186Z,101540.31
2022-10-03T07:59:01.725Z,101539.91
2022-10-03T08:01:43.286Z,101541.09
2022-10-03T08:04:15.877Z,101539.38
2022-10-03T08:06:50.203Z,101549.69
2022-10-03T08:09:19.431Z,101545.47
2022-10-03T08:11:53.567Z,101549.00
2022-10-03T08:14:32.926Z,101553.84
2022-10-03T08:16:59.466Z,101558.75
2022-10-03T08:19:41.212Z,101558.19
2022-10-03T08:22:25.367Z,101564.16
2022-10-03T08:25:07.184Z,101560.22
2022-10-03T08:27:44.560Z,101556.13
2022-10-03T08:30:38.561Z,101563.44
2022-10-03T08:33:25.399Z,101559.09
2022-10-03T08:36:10.173Z,101560.16
2022-10-03T08:38:52.038Z,101568.38
2022-10-03T08:41:33.987Z,101563.69
2022-10-03T08:44:18.862Z,101564.81
2022-10-03T08:47:01.448Z,101564.69
2022-10-03T08:49:46.574Z,101569.59
2022-10-03T08:52:32.204Z,101558.28
2022-10-03T08:55:14.611Z,101570.97
2022-10-03T08:58:04.566Z,101582.47
2022-10-03T09:00:46.961Z,101574.09
2022-10-03T09:03:36.851Z,101581.00
2022-10-03T09:06:09.568Z,101580.28
2022-10-03T09:08:57.403Z,101577.50
2022-10-03T09:11:34.531Z,101586.34
2022-10-03T09:14:19.447Z,101589.00
2022-10-03T09:17:04.498Z,101591.03
2022-10-03T09:19:49.634Z,101588.06
2022-10-03T09:22:32.078Z,101595.81
2022-10-03T09:25:07.686Z,101594.88
2022-10-03T09:27:52.145Z,101591.75
2022-10-03T09:30:44.801Z,101594.84
2022-10-03T09:33:13.920Z,101606.13
2022-10-03T09:35:43.215Z,101605.69
2022-10-03T09:38:22.308Z,101600.16
2022-10-03T09:41:07.133Z,101605.03
2022-10-03T09:43:33.387Z,101605.94
2022-10-03T09:46:19.182Z,101602.69
2022-10-03T09:48:45.463Z,101606.72
2022-10-03T09:51:11.726Z,101616.56
2022-10-03T09:53:58.241Z,101615.75
2022-10-03T09:56:44.216Z,101612.88
2022-10-03T09:59:16.555Z,101619.53
2022-10-03T10:01:45.834Z,101618.16
2022-10-03T10:04:53.773Z,101622.97
2022-10-03T10:07:39.970Z,101608.28
2022-10-03T10:10:24.898Z,101615.72
2022-10-03T10:13:10.186Z,101618.88
2022-10-03T10:15:48.682Z,101621.16
2022-10-03T10:18:21.138Z,101615.66
2022-10-03T10:20:50.384Z,101621.03
2022-10-03T10:23:39.097Z,101620.41
2022-10-03T10:26:27.453Z,101616.47
2022-10-03T10:28:55.577Z,101627.84
2022-10-03T10:31:40.493Z,101632.91
2022-10-03T10:34:16.061Z,101629.13
2022-10-03T10:37:10.203Z,101636.72
2022-10-03T10:39:45.921Z,101633.66
2022-10-03T10:42:18.403Z,101639.09
2022-10-03T10:44:51.404Z,101639.22
2022-10-03T10:47:36.208Z,101636.81
2022-10-03T10:50:08.600Z,101626.88
2022-10-03T10:52:50.441Z,101636.09
2022-10-03T10:55:35.171Z,101626.50
2022-10-03T10:58:30.652Z,101628.34
2022-10-03T11:01:12.095Z,101618.59
2022-10-03T11:03:57.187Z,101636.88
2022-10-03T11:06:23.999Z,101625.25
2022-10-03T11:09:13.374Z,101621.81
2022-10-03T11:11:58.209Z,101632.13
2022-10-03T11:14:36.763Z,101629.91
2022-10-03T11:17:19.875Z,101627.03
2022-10-03T11:19:58.073Z,101624.28
2022-10-03T11:23:04.826Z,101632.81
2022-10-03T11:25:50.210Z,101631.41
2022-10-03T11:28:45.119Z,101624.56
2022-10-03T11:31:23.834Z,101622.25
2022-10-03T11:34:08.437Z,101617.53
2022-10-03T11:37:00.692Z,101622.09
2022-10-03T11:39:42.105Z,101626.63
2022-10-03T11:42:28.372Z,101612.81
2022-10-03T11:44:59.224Z,101605.78
2022-10-03T11:47:25.441Z,101605.88
2022-10-03T11:49:57.910Z,101600.72
2022-10-03T11:52:27.898Z,101601.53
2022-10-03T11:55:26.147Z,101598.50
2022-10-03T11:58:11.138Z,101595.72
2022-10-03T12:00:40.022Z,101595.13
2022-10-03T12:03:06.318Z,101597.31
2022-10-03T12:05:32.569Z,101592.63
2022-10-03T12:08:17.659Z,101590.84
2022-10-03T12:10:58.942Z,101590.56
2022-10-03T12:13:36.908Z,101589.44
2022-10-03T12:16:06.133Z,101590.94
2022-10-03T12:18:44.612Z,101588.69
2022-10-03T12:21:12.954Z,101590.94
2022-10-03T12:24:02.574Z,101594.66
2022-10-03T12:26:37.550Z,101585.78
2022-10-03T12:29:08.707Z,101583.47
2022-10-03T12:31:40.180Z,101577.03
2022-10-03T12:34:25.600Z,101580.16
2022-10-03T12:37:11.690Z,101581.84
2022-10-03T12:40:04.117Z,101595.56
2022-10-03T12:42:45.131Z,101601.38
2022-10-03T12:45:17.238Z,101607.00
2022-10-03T12:47:56.918Z,101598.22
2022-10-03T12:50:39.458Z,101608.44
2022-10-03T12:53:23.671Z,101616.69
2022-10-03T12:56:22.439Z,101602.44
2022-10-03T12:58:55.612Z,101603.00
2022-10-03T13:01:30.700Z,101597.69
2022-10-03T13:04:02.772Z,101602.53
2022-10-03T13:07:02.221Z,101604.84
2022-10-03T13:09:43.452Z,101602.53
2022-10-03T13:12:25.431Z,101597.31
2022-10-03T13:15:06.572Z,101601.78
2022-10-03T13:17:40.416Z,101602.31
2022-10-03T13:20:06.755Z,101606.41
2022-10-03T13:22:33.123Z,101612.22
2022-10-03T13:25:07.735Z,101613.00
2022-10-03T13:27:52.565Z,101612.09
2022-10-03T13:30:29.017Z,101617.38
2022-10-03T13:33:06.572Z,101616.13
2022-10-03T13:35:58.380Z,101613.81
2022-10-03T13:38:45.763Z,101607.22
2022-10-03T13:41:19.439Z,101615.31
2022-10-03T13:43:49.804Z,101612.38
2022-10-03T13:46:19.922Z,101615.13
2022-10-03T13:48:55.043Z,101604.34
2022-10-03T13:51:27.770Z,101610.78
2022-10-03T13:54:01.326Z,101603.03
2022-10-03T13:56:47.859Z,101608.28
2022-10-03T13:59:25.009Z,101610.41
2022-10-03T14:01:58.214Z,101602.94
2022-10-03T14:04:33.670Z,101595.56
2022-10-03T14:07:08.803Z,101596.88
2022-10-03T14:09:35.054Z,101610.59
2022-10-03T14:12:07.434Z,101592.44
2022-10-03T14:14:54.195Z,101592.97
2022-10-03T14:17:32.936Z,101585.22
2022-10-03T14:20:15.167Z,101601.97
2022-10-03T14:23:00.734Z,101601.63
2022-10-03T14:25:27.023Z,101593.78
2022-10-03T14:27:54.915Z,101592.53
2022-10-03T14:30:21.606Z,101596.88
2022-10-03T14:32:48.523Z,101604.56
2022-10-03T14:35:37.813Z,101593.59
2022-10-03T14:38:09.348Z,101590.03
2022-10-03T14:40:42.241Z,101589.41
2022-10-03T14:43:32.986Z,101585.69
2022-10-03T14:46:00.833Z,101581.75
2022-10-03T14:48:27.773Z,101577.41
2022-10-03T14:50:57.529Z,101577.78
2022-10-03T14:53:29.642Z,101571.53
2022-10-03T14:56:00.986Z,101582.38
2022-10-03T14:58:35.338Z,101582.22
2022-10-03T15:01:13.015Z,101579.91
2022-10-03T15:03:42.511Z,101580.34
2022-10-03T15:06:19.112Z,101591.22
2022-10-03T15:08:55.946Z,101589.44
2022-10-03T15:11:26.879Z,101586.50
2022-10-03T15:14:04.892Z,101587.81
2022-10-03T15:16:34.489Z,101583.63
2022-10-03T15:19:07.272Z,101591.47
2022-10-03T15:21:35.183Z,101601.16
2022-10-03T15:24:03.787Z,101610.31
2022-10-03T15:26:32.940Z,101604.44
2022-10-03T15:29:00.949Z,101607.56
2022-10-03T15:31:37.601Z,101610.31
2022-10-03T15:34:14.397Z,101609.25
2022-10-03T15:36:42.167Z,101612.81
2022-10-03T15:39:17.259Z,101618.06
2022-10-03T15:41:55.689Z,101615.13
2022-10-03T15:44:33.576Z,101602.84
2022-10-03T15:47:05.005Z,101602.59
2022-10-03T15:49:37.256Z,101602.94
2022-10-03T15:52:15.688Z,101599.38
2022-10-03T15:54:45.730Z,101598.78
2022-10-03T15:57:17.499Z,101593.31
2022-10-03T15:59:47.007Z,101600.63
2022-10-03T16:02:19.055Z,101590.88
2022-10-03T16:04:48.814Z,101585.63
2022-10-03T16:07:36.855Z,101589.16
2022-10-03T16:10:32.797Z,101581.69
2022-10-03T16:13:01.927Z,101585.22
2022-10-03T16:15:34.120Z,101586.84
2022-10-03T16:18:02.348Z,101583.78
2022-10-03T16:20:34.750Z,101586.44
2022-10-03T16:23:19.238Z,101581.69
2022-10-03T16:25:49.020Z,101588.03
2022-10-03T16:28:20.712Z,101590.84
2022-10-03T16:30:56.172Z,101595.06
2022-10-03T16:33:42.718Z,101588.28
2022-10-03T16:36:10.174Z,101593.13
2022-10-03T16:38:37.761Z,101582.03
2022-10-03T16:41:24.503Z,101592.03
2022-10-03T16:44:13.949Z,101586.41
2022-10-03T16:46:43.091Z,101586.97
2022-10-03T16:49:29.333Z,101582.72
2022-10-03T16:52:06.155Z,101586.41
2022-10-03T16:54:33.341Z,101596.41
2022-10-03T16:57:00.728Z,101595.84
2022-10-03T16:59:28.782Z,101584.81
2022-10-03T17:01:55.428Z,101585.63
2022-10-03T17:04:26.531Z,101588.56
2022-10-03T17:06:55.484Z,101592.00
2022-10-03T17:09:24.536Z,101599.09
2022-10-03T17:11:53.519Z,101595.63
2022-10-03T17:14:20.744Z,101596.56
2022-10-03T17:16:57.037Z,101588.28
2022-10-03T17:19:55.735Z,101584.22
2022-10-03T17:22:27.995Z,101573.19
2022-10-03T17:25:16.207Z,101583.41
2022-10-03T17:27:47.480Z,101563.75
2022-10-03T17:30:14.303Z,101578.03
2022-10-03T17:32:44.959Z,101571.56
2022-10-03T17:35:15.425Z,101574.50
2022-10-03T17:37:55.774Z,101574.97
2022-10-03T17:40:29.041Z,101574.41
2022-10-03T17:42:57.480Z,101576.94
2022-10-03T17:45:42.857Z,101572.72
2022-10-03T17:48:20.498Z,101576.31
2022-10-03T17:50:49.517Z,101571.50
2022-10-03T17:53:20.122Z,101567.66
2022-10-03T17:55:47.952Z,101563.03
2022-10-03T17:58:17.102Z,101567.44
2022-10-03T18:00:46.580Z,101564.16
2022-10-03T18:03:31.786Z,101548.47
2022-10-03T18:06:00.397Z,101559.28
2022-10-03T18:08:28.660Z,101560.50
2022-10-03T18:10:56.488Z,101554.88
2022-10-03T18:13:30.406Z,101545.97
2022-10-03T18:16:15.249Z,101543.00
2022-10-03T18:19:00.490Z,101541.66
2022-10-03T18:21:27.018Z,101531.97
2022-10-03T18:24:12.131Z,101540.69
2022-10-03T18:26:43.758Z,101534.19
2022-10-03T18:29:13.407Z,101538.75
2022-10-03T18:31:45.498Z,101527.19
2022-10-03T18:34:20.215Z,101530.19
2022-10-03T18:36:51.139Z,101536.50
2022-10-03T18:39:19.043Z,101518.59
2022-10-03T18:41:49.530Z,101530.16
2022-10-03T18:44:20.439Z,101530.63
2022-10-03T18:46:50.890Z,101527.78
2022-10-03T18:49:33.507Z,101517.69
2022-10-03T18:52:03.714Z,101521.13
2022-10-03T18:54:59.351Z,101517.44
2022-10-03T18:57:25.698Z,101518.59
2022-10-03T18:59:56.228Z,101518.84
2022-10-03T19:02:26.737Z,101519.63
2022-10-03T19:04:56.732Z,101516.28
2022-10-03T19:07:24.913Z,101507.78
2022-10-03T19:10:11.767Z,101506.63
2022-10-03T19:12:42.162Z,101513.13
2022-10-03T19:15:14.572Z,101506.00
2022-10-03T19:17:56.175Z,101505.38
2022-10-03T19:20:27.670Z,101507.56
2022-10-03T19:23:14.057Z,101507.41
2022-10-03T19:25:42.783Z,101500.03
2022-10-03T19:28:29.504Z,101503.00
2022-10-03T19:31:11.307Z,101501.47
2022-10-03T19:33:42.444Z,101508.78
2022-10-03T19:36:12.593Z,101508.19
2022-10-03T19:38:42.364Z,101506.72
2022-10-03T19:41:14.639Z,101515.81
2022-10-03T19:43:43.155Z,101503.00
2022-10-03T19:46:15.430Z,101510.94
2022-10-03T19:48:54.310Z,101505.91
2022-10-03T19:51:25.695Z,101503.16
2022-10-03T19:53:52.851Z,101510.53
2022-10-03T19:56:19.878Z,101518.13
2022-10-03T19:58:47.700Z,101507.47
2022-10-03T20:01:14.224Z,101510.44
2022-10-03T20:03:47.935Z,101509.97
2022-10-03T20:06:17.534Z,101510.34
2022-10-03T20:08:46.948Z,101513.06
2022-10-03T20:11:31.775Z,101510.28
2022-10-03T20:14:00.558Z,101511.16
2022-10-03T20:16:30.164Z,101514.84
2022-10-03T20:19:09.257Z,101505.81
2022-10-03T20:21:36.215Z,101509.81
2022-10-03T20:24:07.886Z,101518.53
2022-10-03T20:26:54.549Z,101515.94
2022-10-03T20:29:31.306Z,101509.44
2022-10-03T20:31:58.999Z,101517.97
2022-10-03T20:34:26.202Z,101502.75
2022-10-03T20:36:57.787Z,101511.81
2022-10-03T20:39:33.766Z,101509.47
2022-10-03T20:42:25.923Z,101500.81
2022-10-03T20:45:02.747Z,101505.97
2022-10-03T20:47:31.890Z,101504.47
2022-10-03T20:50:01.795Z,101510.56
2022-10-03T20:52:28.221Z,101509.50
2022-10-03T20:55:03.052Z,101512.59
2022-10-03T20:57:58.913Z,101506.22
2022-10-03T21:00:25.670Z,101512.00
2022-10-03T21:03:07.509Z,101504.09
2022-10-03T21:05:36.520Z,101504.44
2022-10-03T21:08:04.570Z,101501.78
2022-10-03T21:10:33.683Z,101510.31
2022-10-03T21:13:01.478Z,101503.22
2022-10-03T21:15:29.860Z,101500.84
2022-10-03T21:17:57.091Z,101501.13
2022-10-03T21:20:27.218Z,101510.09
2022-10-03T21:22:55.347Z,101506.72
2022-10-03T21:25:29.769Z,101502.81
2022-10-03T21:27:57.323Z,101506.28
2022-10-03T21:30:46.708Z,101505.91
2022-10-03T21:33:19.036Z,101496.69
2022-10-03T21:35:46.900Z,101501.81
2022-10-03T21:38:31.252Z,101502.69
2022-10-03T21:41:00.288Z,101505.75
2022-10-03T21:43:35.658Z,101504.56
2022-10-03T21:46:02.062Z,101501.97
2022-10-03T21:48:37.225Z,101501.09
2022-10-03T21:51:23.299Z,101513.31
2022-10-03T21:54:12.669Z,101506.31
2022-10-03T21:56:44.796Z,101503.25
2022-10-03T21:59:16.861Z,101507.44
2022-10-03T22:01:43.404Z,101509.00
2022-10-03T22:04:33.197Z,101498.22
2022-10-03T22:07:05.750Z,101496.94
2022-10-03T22:09:32.245Z,101493.25
2022-10-03T22:12:00.286Z,101490.91
2022-10-03T22:14:44.982Z,101484.41
2022-10-03T22:17:49.843Z,101485.41
2022-10-03T22:20:26.356Z,101483.69
2022-10-03T22:23:08.862Z,101483.25
2022-10-03T22:25:39.026Z,101482.44
2022-10-03T22:28:11.488Z,101477.19
2022-10-03T22:30:40.870Z,101477.28
2022-10-03T22:33:07.791Z,101468.03
2022-10-03T22:35:46.132Z,101472.59
2022-10-03T22:38:12.804Z,101476.97
2022-10-03T22:40:39.984Z,101476.28
2022-10-03T22:43:08.336Z,101478.00
2022-10-03T22:45:38.189Z,101487.63
2022-10-03T22:48:06.856Z,101477.78
2022-10-03T22:50:35.809Z,101485.66
2022-10-03T22:53:02.615Z,101485.22
2022-10-03T22:55:29.809Z,101486.34
2022-10-03T22:57:56.922Z,101492.09
2022-10-03T23:00:25.040Z,101485.09
2022-10-03T23:02:57.920Z,101487.84
2022-10-03T23:05:42.990Z,101488.84
2022-10-03T23:08:25.760Z,101488.75
2022-10-03T23:10:55.241Z,101494.03
2022-10-03T23:13:21.463Z,101502.34
2022-10-03T23:15:50.819Z,101498.94
2022-10-03T23:18:32.353Z,101501.25
2022-10-03T23:21:01.700Z,101504.09
2022-10-03T23:23:31.013Z,101512.81
2022-10-03T23:26:16.101Z,101517.53
2022-10-03T23:28:57.296Z,101512.38
2022-10-03T23:31:42.440Z,101516.03
2022-10-03T23:34:09.882Z,101509.56
2022-10-03T23:36:56.106Z,101518.34
2022-10-03T23:39:45.987Z,101513.66
2022-10-03T23:42:18.260Z,101512.09
2022-10-03T23:47:32.636Z,101512.63
2022-10-03T23:49:59.896Z,101510.81
2022-10-03T23:52:28.337Z,101508.56
2022-10-03T23:54:56.150Z,101519.56
2022-10-03T23:57:26.513Z,101518.78
2022-10-03T23:59:52.761Z,101512.81
